sensor_id;sensor_type;location;lat;lon;timestamp;pressure;altitude;pressure_sealevel;temperature;humidity
30919;BME280;76545;51.606;5.884;2024-03-08T00:02:17;101726.38;;;2.27;89.69
30919;BME280;76545;51.606;5.884;2024-03-08T00:04:43;101735.38;;;2.21;89.89
30919;BME280;76545;51.606;5.884;2024-03-08T00:07:10;101733.69;;;2.22;89.76
30919;BME280;76545;51.606;5.884;2024-03-08T00:09:36;101711.25;;;2.14;90.05
30919;BME280;76545;51.606;5.884;2024-03-08T00:12:02;101728.63;;;2.15;90.26
30919;BME280;76545;51.606;5.884;2024-03-08T00:14:28;101731.09;;;2.13;90.22
30919;BME280;76545;51.606;5.884;2024-03-08T00:16:54;101734.13;;;2.09;89.94
30919;BME280;76545;51.606;5.884;2024-03-08T00:19:20;101725.28;;;2.07;90.21
30919;BME280;76545;51.606;5.884;2024-03-08T00:21:46;101720.41;;;2.10;89.39
30919;BME280;76545;51.606;5.884;2024-03-08T00:24:12;101724.78;;;2.02;90.01
30919;BME280;76545;51.606;5.884;2024-03-08T00:26:38;101721.59;;;2.05;89.64
30919;BME280;76545;51.606;5.884;2024-03-08T00:29:04;101722.19;;;2.02;89.75
30919;BME280;76545;51.606;5.884;2024-03-08T00:31:30;101726.00;;;1.97;90.06
30919;BME280;76545;51.606;5.884;2024-03-08T00:33:57;101711.03;;;1.94;89.76
30919;BME280;76545;51.606;5.884;2024-03-08T00:36:23;101722.66;;;1.98;89.77
30919;BME280;76545;51.606;5.884;2024-03-08T00:38:50;101710.13;;;1.94;89.76
30919;BME280;76545;51.606;5.884;2024-03-08T00:41:16;101711.22;;;1.96;89.71
30919;BME280;76545;51.606;5.884;2024-03-08T00:43:42;101708.28;;;1.93;89.74
30919;BME280;76545;51.606;5.884;2024-03-08T00:46:08;101699.88;;;1.86;89.91
30919;BME280;76545;51.606;5.884;2024-03-08T00:48:34;101703.97;;;1.84;89.75
30919;BME280;76545;51.606;5.884;2024-03-08T00:51:00;101697.91;;;1.84;89.80
30919;BME280;76545;51.606;5.884;2024-03-08T00:53:27;101699.72;;;1.85;89.57
30919;BME280;76545;51.606;5.884;2024-03-08T00:55:53;101691.16;;;1.77;89.63
30919;BME280;76545;51.606;5.884;2024-03-08T00:58:20;101693.75;;;1.77;89.99
30919;BME280;76545;51.606;5.884;2024-03-08T01:00:47;101678.59;;;1.73;89.68
30919;BME280;76545;51.606;5.884;2024-03-08T01:03:13;101680.91;;;1.70;89.97
30919;BME280;76545;51.606;5.884;2024-03-08T01:05:39;101684.09;;;1.67;90.00
30919;BME280;76545;51.606;5.884;2024-03-08T01:08:05;101682.88;;;1.72;89.96
30919;BME280;76545;51.606;5.884;2024-03-08T01:10:31;101671.72;;;1.64;89.89
30919;BME280;76545;51.606;5.884;2024-03-08T01:12:57;101665.44;;;1.62;90.13
30919;BME280;76545;51.606;5.884;2024-03-08T01:15:25;101664.25;;;1.68;89.61
30919;BME280;76545;51.606;5.884;2024-03-08T01:17:51;101660.25;;;1.62;89.85
30919;BME280;76545;51.606;5.884;2024-03-08T01:20:17;101658.44;;;1.61;90.29
30919;BME280;76545;51.606;5.884;2024-03-08T01:22:43;101657.81;;;1.55;90.08
30919;BME280;76545;51.606;5.884;2024-03-08T01:25:09;101648.19;;;1.54;90.12
30919;BME280;76545;51.606;5.884;2024-03-08T01:27:35;101649.72;;;1.52;90.15
30919;BME280;76545;51.606;5.884;2024-03-08T01:30:03;101653.84;;;1.50;90.19
30919;BME280;76545;51.606;5.884;2024-03-08T01:32:29;101651.53;;;1.53;90.00
30919;BME280;76545;51.606;5.884;2024-03-08T01:34:55;101654.56;;;1.49;90.16
30919;BME280;76545;51.606;5.884;2024-03-08T01:37:21;101648.94;;;1.44;90.42
30919;BME280;76545;51.606;5.884;2024-03-08T01:39:47;101644.34;;;1.42;90.20
30919;BME280;76545;51.606;5.884;2024-03-08T01:42:13;101646.28;;;1.35;90.58
30919;BME280;76545;51.606;5.884;2024-03-08T01:44:42;101655.00;;;1.36;90.48
30919;BME280;76545;51.606;5.884;2024-03-08T01:47:10;101643.69;;;1.35;90.03
30919;BME280;76545;51.606;5.884;2024-03-08T01:49:37;101640.66;;;1.31;90.35
30919;BME280;76545;51.606;5.884;2024-03-08T01:52:03;101631.78;;;1.28;90.29
30919;BME280;76545;51.606;5.884;2024-03-08T01:54:29;101647.50;;;1.30;90.34
30919;BME280;76545;51.606;5.884;2024-03-08T01:56:56;101645.22;;;1.33;90.37
30919;BME280;76545;51.606;5.884;2024-03-08T01:59:25;101637.88;;;1.29;90.44
30919;BME280;76545;51.606;5.884;2024-03-08T02:01:55;101643.25;;;1.31;90.23
30919;BME280;76545;51.606;5.884;2024-03-08T02:04:21;101624.75;;;1.19;90.42
30919;BME280;76545;51.606;5.884;2024-03-08T02:06:47;101630.53;;;1.16;90.62
30919;BME280;76545;51.606;5.884;2024-03-08T02:09:14;101622.16;;;1.19;90.00
30919;BME280;76545;51.606;5.884;2024-03-08T02:11:41;101625.47;;;1.17;90.80
30919;BME280;76545;51.606;5.884;2024-03-08T02:14:07;101617.41;;;1.14;90.29
30919;BME280;76545;51.606;5.884;2024-03-08T02:16:33;101615.25;;;1.19;90.60
30919;BME280;76545;51.606;5.884;2024-03-08T02:18:59;101615.97;;;1.09;90.64
30919;BME280;76545;51.606;5.884;2024-03-08T02:21:26;101615.25;;;1.10;90.78
30919;BME280;76545;51.606;5.884;2024-03-08T02:23:52;101606.53;;;1.01;91.02
30919;BME280;76545;51.606;5.884;2024-03-08T02:26:18;101603.59;;;0.98;90.99
30919;BME280;76545;51.606;5.884;2024-03-08T02:28:45;101610.94;;;1.02;90.95
30919;BME280;76545;51.606;5.884;2024-03-08T02:31:11;101605.44;;;0.99;90.95
30919;BME280;76545;51.606;5.884;2024-03-08T02:33:37;101601.44;;;0.93;91.13
30919;BME280;76545;51.606;5.884;2024-03-08T02:36:04;101599.34;;;0.98;90.83
30919;BME280;76545;51.606;5.884;2024-03-08T02:38:32;101595.38;;;1.02;90.58
30919;BME280;76545;51.606;5.884;2024-03-08T02:40:58;101599.63;;;0.92;90.80
30919;BME280;76545;51.606;5.884;2024-03-08T02:43:24;101586.31;;;0.89;90.78
30919;BME280;76545;51.606;5.884;2024-03-08T02:45:51;101582.66;;;0.87;90.88
30919;BME280;76545;51.606;5.884;2024-03-08T02:48:20;101592.56;;;0.91;90.86
30919;BME280;76545;51.606;5.884;2024-03-08T02:50:48;101587.09;;;0.88;90.76
30919;BME280;76545;51.606;5.884;2024-03-08T02:53:14;101581.31;;;0.91;90.48
30919;BME280;76545;51.606;5.884;2024-03-08T02:55:40;101580.97;;;0.79;91.03
30919;BME280;76545;51.606;5.884;2024-03-08T02:58:07;101587.53;;;0.84;90.90
30919;BME280;76545;51.606;5.884;2024-03-08T03:00:37;101572.91;;;0.93;90.12
30919;BME280;76545;51.606;5.884;2024-03-08T03:03:04;101578.88;;;0.92;89.49
30919;BME280;76545;51.606;5.884;2024-03-08T03:05:30;101571.09;;;0.92;89.74
30919;BME280;76545;51.606;5.884;2024-03-08T03:07:57;101565.72;;;0.82;89.95
30919;BME280;76545;51.606;5.884;2024-03-08T03:10:24;101560.88;;;0.85;89.76
30919;BME280;76545;51.606;5.884;2024-03-08T03:12:50;101566.63;;;0.82;90.10
30919;BME280;76545;51.606;5.884;2024-03-08T03:15:16;101558.09;;;0.84;89.99
30919;BME280;76545;51.606;5.884;2024-03-08T03:17:47;101554.97;;;0.95;89.65
30919;BME280;76545;51.606;5.884;2024-03-08T03:20:14;101548.66;;;0.84;90.35
30919;BME280;76545;51.606;5.884;2024-03-08T03:22:41;101553.53;;;0.81;89.35
30919;BME280;76545;51.606;5.884;2024-03-08T03:25:08;101557.78;;;0.80;89.22
30919;BME280;76545;51.606;5.884;2024-03-08T03:27:38;101545.41;;;0.78;89.07
30919;BME280;76545;51.606;5.884;2024-03-08T03:30:06;101555.31;;;0.73;89.52
30919;BME280;76545;51.606;5.884;2024-03-08T03:32:48;101542.63;;;0.67;90.02
30919;BME280;76545;51.606;5.884;2024-03-08T03:35:16;101552.09;;;0.76;89.85
30919;BME280;76545;51.606;5.884;2024-03-08T03:37:42;101550.44;;;0.76;89.22
30919;BME280;76545;51.606;5.884;2024-03-08T03:40:12;101548.16;;;0.79;88.78
30919;BME280;76545;51.606;5.884;2024-03-08T03:42:39;101539.94;;;0.75;88.79
30919;BME280;76545;51.606;5.884;2024-03-08T03:45:06;101543.09;;;0.72;88.96
30919;BME280;76545;51.606;5.884;2024-03-08T03:47:32;101544.47;;;0.68;89.09
30919;BME280;76545;51.606;5.884;2024-03-08T03:49:58;101539.59;;;0.72;89.11
30919;BME280;76545;51.606;5.884;2024-03-08T03:52:27;101536.38;;;0.65;89.18
30919;BME280;76545;51.606;5.884;2024-03-08T03:54:53;101534.53;;;0.64;88.82
30919;BME280;76545;51.606;5.884;2024-03-08T03:57:19;101536.69;;;0.68;89.14
30919;BME280;76545;51.606;5.884;2024-03-08T03:59:48;101542.00;;;0.61;88.79
30919;BME280;76545;51.606;5.884;2024-03-08T04:02:16;101533.59;;;0.64;88.67
30919;BME280;76545;51.606;5.884;2024-03-08T04:04:42;101528.06;;;0.52;89.17
30919;BME280;76545;51.606;5.884;2024-03-08T04:07:09;101523.06;;;0.53;89.08
30919;BME280;76545;51.606;5.884;2024-03-08T04:09:36;101518.31;;;0.49;89.14
30919;BME280;76545;51.606;5.884;2024-03-08T04:12:03;101517.56;;;0.50;88.86
30919;BME280;76545;51.606;5.884;2024-03-08T04:14:29;101520.28;;;0.52;89.06
30919;BME280;76545;51.606;5.884;2024-03-08T04:16:54;101523.34;;;0.48;89.06
30919;BME280;76545;51.606;5.884;2024-03-08T04:19:21;101513.41;;;0.43;88.79
30919;BME280;76545;51.606;5.884;2024-03-08T04:21:47;101514.59;;;0.38;88.93
30919;BME280;76545;51.606;5.884;2024-03-08T04:24:13;101515.59;;;0.48;88.58
30919;BME280;76545;51.606;5.884;2024-03-08T04:26:39;101519.34;;;0.42;89.05
30919;BME280;76545;51.606;5.884;2024-03-08T04:29:05;101507.03;;;0.49;88.36
30919;BME280;76545;51.606;5.884;2024-03-08T04:31:31;101508.25;;;0.43;89.06
30919;BME280;76545;51.606;5.884;2024-03-08T04:33:57;101499.97;;;0.39;88.67
30919;BME280;76545;51.606;5.884;2024-03-08T04:36:23;101506.09;;;0.48;88.61
30919;BME280;76545;51.606;5.884;2024-03-08T04:38:51;101505.81;;;0.45;88.37
30919;BME280;76545;51.606;5.884;2024-03-08T04:41:17;101506.97;;;0.40;89.20
30919;BME280;76545;51.606;5.884;2024-03-08T04:43:44;101508.53;;;0.38;88.65
30919;BME280;76545;51.606;5.884;2024-03-08T04:46:10;101499.03;;;0.29;89.00
30919;BME280;76545;51.606;5.884;2024-03-08T04:48:36;101510.03;;;0.36;89.24
30919;BME280;76545;51.606;5.884;2024-03-08T04:51:03;101501.34;;;0.35;89.05
30919;BME280;76545;51.606;5.884;2024-03-08T04:53:30;101492.63;;;0.34;89.43
30919;BME280;76545;51.606;5.884;2024-03-08T04:55:59;101488.66;;;0.29;88.99
30919;BME280;76545;51.606;5.884;2024-03-08T04:58:25;101493.22;;;0.32;89.15
30919;BME280;76545;51.606;5.884;2024-03-08T05:00:51;101492.63;;;0.26;89.34
30919;BME280;76545;51.606;5.884;2024-03-08T05:03:17;101491.41;;;0.31;89.47
30919;BME280;76545;51.606;5.884;2024-03-08T05:05:43;101498.38;;;0.23;89.68
30919;BME280;76545;51.606;5.884;2024-03-08T05:08:09;101484.06;;;0.27;89.34
30919;BME280;76545;51.606;5.884;2024-03-08T05:10:35;101479.91;;;0.20;89.67
30919;BME280;76545;51.606;5.884;2024-03-08T05:13:01;101476.00;;;0.23;89.32
30919;BME280;76545;51.606;5.884;2024-03-08T05:15:27;101477.50;;;0.21;89.40
30919;BME280;76545;51.606;5.884;2024-03-08T05:17:53;101473.22;;;0.22;89.44
30919;BME280;76545;51.606;5.884;2024-03-08T05:20:19;101472.91;;;0.19;89.54
30919;BME280;76545;51.606;5.884;2024-03-08T05:22:45;101480.94;;;0.13;89.99
30919;BME280;76545;51.606;5.884;2024-03-08T05:25:12;101473.78;;;0.10;90.05
30919;BME280;76545;51.606;5.884;2024-03-08T05:27:40;101482.78;;;0.14;90.11
30919;BME280;76545;51.606;5.884;2024-03-08T05:30:06;101466.94;;;0.11;90.03
30919;BME280;76545;51.606;5.884;2024-03-08T05:32:32;101475.00;;;0.14;90.34
30919;BME280;76545;51.606;5.884;2024-03-08T05:34:58;101477.28;;;0.11;90.23
30919;BME280;76545;51.606;5.884;2024-03-08T05:37:24;101476.06;;;0.07;90.50
30919;BME280;76545;51.606;5.884;2024-03-08T05:39:50;101460.69;;;0.09;90.49
30919;BME280;76545;51.606;5.884;2024-03-08T05:42:16;101472.22;;;0.04;90.80
30919;BME280;76545;51.606;5.884;2024-03-08T05:44:42;101469.28;;;0.01;90.83
30919;BME280;76545;51.606;5.884;2024-03-08T05:47:09;101466.28;;;0.05;90.49
30919;BME280;76545;51.606;5.884;2024-03-08T05:49:36;101464.47;;;0.04;90.76
30919;BME280;76545;51.606;5.884;2024-03-08T05:52:02;101462.63;;;0.03;90.63
30919;BME280;76545;51.606;5.884;2024-03-08T05:54:28;101461.88;;;0.04;90.97
30919;BME280;76545;51.606;5.884;2024-03-08T05:56:54;101458.94;;;0.01;91.23
30919;BME280;76545;51.606;5.884;2024-03-08T05:59:20;101453.31;;;-0.04;91.29
30919;BME280;76545;51.606;5.884;2024-03-08T06:01:49;101456.47;;;-0.07;91.73
30919;BME280;76545;51.606;5.884;2024-03-08T06:04:15;101463.47;;;-0.06;91.40
30919;BME280;76545;51.606;5.884;2024-03-08T06:06:43;101456.16;;;-0.10;91.80
30919;BME280;76545;51.606;5.884;2024-03-08T06:09:09;101463.31;;;-0.07;91.61
30919;BME280;76545;51.606;5.884;2024-03-08T06:11:37;101449.03;;;-0.04;91.11
30919;BME280;76545;51.606;5.884;2024-03-08T06:14:04;101447.19;;;-0.05;91.35
30919;BME280;76545;51.606;5.884;2024-03-08T06:16:30;101443.69;;;-0.05;91.84
30919;BME280;76545;51.606;5.884;2024-03-08T06:18:56;101447.03;;;-0.06;91.60
30919;BME280;76545;51.606;5.884;2024-03-08T06:21:23;101441.53;;;-0.09;91.80
30919;BME280;76545;51.606;5.884;2024-03-08T06:23:55;101445.81;;;-0.10;92.10
30919;BME280;76545;51.606;5.884;2024-03-08T06:26:21;101443.97;;;-0.11;92.03
30919;BME280;76545;51.606;5.884;2024-03-08T06:28:48;101442.19;;;-0.03;91.91
30919;BME280;76545;51.606;5.884;2024-03-08T06:31:14;101442.75;;;-0.06;92.24
30919;BME280;76545;51.606;5.884;2024-03-08T06:33:40;101432.91;;;-0.01;91.97
30919;BME280;76545;51.606;5.884;2024-03-08T06:36:06;101435.34;;;-0.03;92.08
30919;BME280;76545;51.606;5.884;2024-03-08T06:38:33;101428.50;;;-0.02;92.00
30919;BME280;76545;51.606;5.884;2024-03-08T06:40:59;101432.47;;;0.03;92.08
30919;BME280;76545;51.606;5.884;2024-03-08T06:43:27;101431.13;;;0.07;91.68
30919;BME280;76545;51.606;5.884;2024-03-08T06:45:58;101425.50;;;0.11;91.56
30919;BME280;76545;51.606;5.884;2024-03-08T06:48:24;101422.78;;;0.18;91.64
30919;BME280;76545;51.606;5.884;2024-03-08T06:50:50;101411.53;;;0.18;91.11
30919;BME280;76545;51.606;5.884;2024-03-08T06:53:16;101419.78;;;0.22;91.17
30919;BME280;76545;51.606;5.884;2024-03-08T06:55:45;101421.63;;;0.23;91.16
30919;BME280;76545;51.606;5.884;2024-03-08T06:58:11;101429.84;;;0.28;91.20
30919;BME280;76545;51.606;5.884;2024-03-08T07:00:37;101430.78;;;0.29;91.34
30919;BME280;76545;51.606;5.884;2024-03-08T07:03:07;101430.50;;;0.34;91.80
30919;BME280;76545;51.606;5.884;2024-03-08T07:05:33;101420.13;;;0.34;90.83
30919;BME280;76545;51.606;5.884;2024-03-08T07:08:00;101414.34;;;0.37;91.36
30919;BME280;76545;51.606;5.884;2024-03-08T07:10:26;101409.47;;;0.40;90.60
30919;BME280;76545;51.606;5.884;2024-03-08T07:12:52;101415.44;;;0.48;90.95
30919;BME280;76545;51.606;5.884;2024-03-08T07:15:19;101420.81;;;0.58;90.74
30919;BME280;76545;51.606;5.884;2024-03-08T07:17:45;101417.47;;;0.60;91.04
30919;BME280;76545;51.606;5.884;2024-03-08T07:20:13;101416.28;;;0.65;90.51
30919;BME280;76545;51.606;5.884;2024-03-08T07:22:41;101409.72;;;0.68;90.46
30919;BME280;76545;51.606;5.884;2024-03-08T07:25:07;101419.06;;;0.84;89.75
30919;BME280;76545;51.606;5.884;2024-03-08T07:27:34;101419.06;;;0.84;89.46
30919;BME280;76545;51.606;5.884;2024-03-08T07:30:02;101416.63;;;0.95;89.50
30919;BME280;76545;51.606;5.884;2024-03-08T07:32:28;101411.44;;;0.95;89.31
30919;BME280;76545;51.606;5.884;2024-03-08T07:34:56;101418.78;;;0.99;88.75
30919;BME280;76545;51.606;5.884;2024-03-08T07:37:22;101408.56;;;1.00;87.51
30919;BME280;76545;51.606;5.884;2024-03-08T07:39:49;101410.69;;;1.13;88.95
30919;BME280;76545;51.606;5.884;2024-03-08T07:42:15;101412.09;;;1.19;87.69
30919;BME280;76545;51.606;5.884;2024-03-08T07:44:44;101404.59;;;1.22;88.23
30919;BME280;76545;51.606;5.884;2024-03-08T07:47:11;101406.13;;;1.28;87.49
30919;BME280;76545;51.606;5.884;2024-03-08T07:49:38;101392.25;;;1.28;87.35
30919;BME280;76545;51.606;5.884;2024-03-08T07:52:04;101393.16;;;1.37;86.92
30919;BME280;76545;51.606;5.884;2024-03-08T07:54:30;101397.44;;;1.46;87.22
30919;BME280;76545;51.606;5.884;2024-03-08T07:56:56;101387.78;;;1.45;86.29
30919;BME280;76545;51.606;5.884;2024-03-08T07:59:22;101378.50;;;1.56;87.05
30919;BME280;76545;51.606;5.884;2024-03-08T08:01:48;101381.50;;;1.69;86.46
30919;BME280;76545;51.606;5.884;2024-03-08T08:04:14;101375.72;;;1.72;85.63
30919;BME280;76545;51.606;5.884;2024-03-08T08:06:43;101374.28;;;1.84;86.74
30919;BME280;76545;51.606;5.884;2024-03-08T08:09:09;101379.78;;;1.87;86.64
30919;BME280;76545;51.606;5.884;2024-03-08T08:11:42;101372.28;;;1.91;84.81
30919;BME280;76545;51.606;5.884;2024-03-08T08:14:09;101358.84;;;1.95;85.57
30919;BME280;76545;51.606;5.884;2024-03-08T08:16:36;101359.63;;;2.22;87.21
30919;BME280;76545;51.606;5.884;2024-03-08T08:19:03;101355.88;;;2.09;84.17
30919;BME280;76545;51.606;5.884;2024-03-08T08:21:34;101362.88;;;2.19;84.37
30919;BME280;76545;51.606;5.884;2024-03-08T08:24:05;101353.22;;;2.27;82.68
30919;BME280;76545;51.606;5.884;2024-03-08T08:26:32;101350.72;;;2.38;83.05
30919;BME280;76545;51.606;5.884;2024-03-08T08:28:59;101337.53;;;2.45;81.71
30919;BME280;76545;51.606;5.884;2024-03-08T08:31:25;101344.84;;;2.49;81.68
30919;BME280;76545;51.606;5.884;2024-03-08T08:33:51;101345.00;;;2.70;83.29
30919;BME280;76545;51.606;5.884;2024-03-08T08:36:24;101340.38;;;2.76;82.56
30919;BME280;76545;51.606;5.884;2024-03-08T08:38:50;101333.41;;;2.86;82.03
30919;BME280;76545;51.606;5.884;2024-03-08T08:41:16;101324.38;;;2.91;81.05
30919;BME280;76545;51.606;5.884;2024-03-08T08:43:43;101335.31;;;2.97;81.13
30919;BME280;76545;51.606;5.884;2024-03-08T08:46:11;101322.28;;;2.97;79.98
30919;BME280;76545;51.606;5.884;2024-03-08T08:48:40;101327.09;;;3.12;80.51
30919;BME280;76545;51.606;5.884;2024-03-08T08:51:11;101326.16;;;3.31;81.18
30919;BME280;76545;51.606;5.884;2024-03-08T08:53:41;101311.59;;;3.33;80.12
30919;BME280;76545;51.606;5.884;2024-03-08T08:56:13;101322.03;;;3.43;78.91
30919;BME280;76545;51.606;5.884;2024-03-08T08:58:40;101310.00;;;3.54;79.17
30919;BME280;76545;51.606;5.884;2024-03-08T09:01:09;101309.13;;;3.74;80.87
30919;BME280;76545;51.606;5.884;2024-03-08T09:03:38;101304.81;;;3.64;78.46
30919;BME280;76545;51.606;5.884;2024-03-08T09:06:09;101311.22;;;3.79;78.14
30919;BME280;76545;51.606;5.884;2024-03-08T09:08:39;101298.00;;;3.86;78.35
30919;BME280;76545;51.606;5.884;2024-03-08T09:11:04;101301.25;;;3.94;77.12
30919;BME280;76545;51.606;5.884;2024-03-08T09:13:31;101304.38;;;3.90;76.74
30919;BME280;76545;51.606;5.884;2024-03-08T09:15:57;101289.53;;;3.99;75.39
30919;BME280;76545;51.606;5.884;2024-03-08T09:18:22;101295.16;;;4.25;77.35
30919;BME280;76545;51.606;5.884;2024-03-08T09:20:50;101285.78;;;4.27;75.58
30919;BME280;76545;51.606;5.884;2024-03-08T09:23:21;101289.19;;;4.46;78.06
30919;BME280;76545;51.606;5.884;2024-03-08T09:25:47;101285.81;;;4.48;76.09
30919;BME280;76545;51.606;5.884;2024-03-08T09:28:13;101291.78;;;4.57;77.85
30919;BME280;76545;51.606;5.884;2024-03-08T09:30:39;101276.78;;;4.54;74.12
30919;BME280;76545;51.606;5.884;2024-03-08T09:33:06;101275.34;;;4.68;76.59
30919;BME280;76545;51.606;5.884;2024-03-08T09:35:32;101260.34;;;4.76;73.74
30919;BME280;76545;51.606;5.884;2024-03-08T09:37:58;101263.06;;;4.78;73.96
30919;BME280;76545;51.606;5.884;2024-03-08T09:40:24;101264.88;;;4.89;73.97
30919;BME280;76545;51.606;5.884;2024-03-08T09:42:51;101247.69;;;4.81;73.32
30919;BME280;76545;51.606;5.884;2024-03-08T09:45:20;101248.38;;;5.11;74.56
30919;BME280;76545;51.606;5.884;2024-03-08T09:47:48;101229.34;;;5.12;71.98
30919;BME280;76545;51.606;5.884;2024-03-08T09:50:14;101231.22;;;5.25;72.15
30919;BME280;76545;51.606;5.884;2024-03-08T09:52:49;101230.81;;;5.31;72.90
30919;BME280;76545;51.606;5.884;2024-03-08T09:55:16;101213.66;;;5.68;72.52
30919;BME280;76545;51.606;5.884;2024-03-08T09:57:43;101214.25;;;5.53;70.16
30919;BME280;76545;51.606;5.884;2024-03-08T10:00:32;101204.84;;;5.55;70.24
30919;BME280;76545;51.606;5.884;2024-03-08T10:03:02;101191.22;;;5.59;70.32
30919;BME280;76545;51.606;5.884;2024-03-08T10:05:30;101188.25;;;5.77;71.48
30919;BME280;76545;51.606;5.884;2024-03-08T10:07:58;101192.13;;;5.82;70.01
30919;BME280;76545;51.606;5.884;2024-03-08T10:10:24;101181.25;;;5.88;70.68
30919;BME280;76545;51.606;5.884;2024-03-08T10:12:50;101180.34;;;5.87;70.12
30919;BME280;76545;51.606;5.884;2024-03-08T10:15:17;101176.22;;;6.14;71.34
30919;BME280;76545;51.606;5.884;2024-03-08T10:17:43;101178.69;;;6.00;68.92
30919;BME280;76545;51.606;5.884;2024-03-08T10:20:17;101167.38;;;6.12;67.92
30919;BME280;76545;51.606;5.884;2024-03-08T10:22:43;101166.25;;;6.20;68.56
30919;BME280;76545;51.606;5.884;2024-03-08T10:25:13;101161.13;;;6.21;65.94
30919;BME280;76545;51.606;5.884;2024-03-08T10:27:39;101150.34;;;6.29;65.25
30919;BME280;76545;51.606;5.884;2024-03-08T10:30:12;101150.91;;;6.25;66.80
30919;BME280;76545;51.606;5.884;2024-03-08T10:32:40;101151.47;;;6.32;65.89
30919;BME280;76545;51.606;5.884;2024-03-08T10:35:08;101141.59;;;6.52;67.72
30919;BME280;76545;51.606;5.884;2024-03-08T10:40:18;101133.63;;;6.63;66.13
30919;BME280;76545;51.606;5.884;2024-03-08T10:42:58;101133.94;;;6.79;66.84
30919;BME280;76545;51.606;5.884;2024-03-08T10:45:37;101128.94;;;6.95;67.18
30919;BME280;76545;51.606;5.884;2024-03-08T10:50:29;101125.88;;;6.88;64.77
30919;BME280;76545;51.606;5.884;2024-03-08T10:53:00;101114.94;;;6.94;63.86
30919;BME280;76545;51.606;5.884;2024-03-08T10:55:28;101122.19;;;7.10;65.88
30919;BME280;76545;51.606;5.884;2024-03-08T10:57:54;101115.09;;;7.09;66.03
30919;BME280;76545;51.606;5.884;2024-03-08T11:00:20;101112.06;;;7.15;65.78
30919;BME280;76545;51.606;5.884;2024-03-08T11:02:53;101109.63;;;7.18;63.88
30919;BME280;76545;51.606;5.884;2024-03-08T11:05:39;101103.28;;;7.14;63.15
30919;BME280;76545;51.606;5.884;2024-03-08T11:08:16;101092.81;;;7.14;62.18
30919;BME280;76545;51.606;5.884;2024-03-08T11:10:52;101099.06;;;7.42;65.07
30919;BME280;76545;51.606;5.884;2024-03-08T11:13:39;101089.97;;;7.37;62.40
30919;BME280;76545;51.606;5.884;2024-03-08T11:19:01;101073.41;;;7.50;62.82
30919;BME280;76545;51.606;5.884;2024-03-08T11:21:31;101070.09;;;7.53;64.27
30919;BME280;76545;51.606;5.884;2024-03-08T11:24:00;101058.00;;;7.55;63.34
30919;BME280;76545;51.606;5.884;2024-03-08T11:26:26;101064.06;;;7.54;61.92
30919;BME280;76545;51.606;5.884;2024-03-08T11:28:52;101056.03;;;7.64;62.25
30919;BME280;76545;51.606;5.884;2024-03-08T11:33:47;101051.66;;;7.90;63.53
30919;BME280;76545;51.606;5.884;2024-03-08T11:36:22;101043.97;;;7.93;62.25
30919;BME280;76545;51.606;5.884;2024-03-08T11:38:50;101036.53;;;7.86;62.08
30919;BME280;76545;51.606;5.884;2024-03-08T11:41:23;101039.16;;;7.99;61.30
30919;BME280;76545;51.606;5.884;2024-03-08T11:44:01;101035.78;;;7.75;61.90
30919;BME280;76545;51.606;5.884;2024-03-08T11:46:27;101031.97;;;7.83;62.06
30919;BME280;76545;51.606;5.884;2024-03-08T11:48:54;101030.66;;;8.31;62.64
30919;BME280;76545;51.606;5.884;2024-03-08T11:51:21;101015.94;;;7.79;59.84
30919;BME280;76545;51.606;5.884;2024-03-08T11:53:49;101016.75;;;7.78;59.56
30919;BME280;76545;51.606;5.884;2024-03-08T11:56:16;101031.78;;;7.94;59.93
30919;BME280;76545;51.606;5.884;2024-03-08T11:58:52;101021.41;;;7.95;61.00
30919;BME280;76545;51.606;5.884;2024-03-08T12:01:19;101018.38;;;8.03;61.24
30919;BME280;76545;51.606;5.884;2024-03-08T12:03:52;101010.50;;;8.03;60.75
30919;BME280;76545;51.606;5.884;2024-03-08T12:06:18;101007.38;;;7.95;60.60
30919;BME280;76545;51.606;5.884;2024-03-08T12:08:46;101007.38;;;8.08;59.78
30919;BME280;76545;51.606;5.884;2024-03-08T12:11:22;100997.41;;;8.03;64.96
30919;BME280;76545;51.606;5.884;2024-03-08T12:13:51;100997.38;;;8.16;59.74
30919;BME280;76545;51.606;5.884;2024-03-08T12:16:17;100998.63;;;8.08;61.15
30919;BME280;76545;51.606;5.884;2024-03-08T12:18:44;100995.38;;;8.12;59.49
30919;BME280;76545;51.606;5.884;2024-03-08T12:21:11;100982.47;;;8.15;59.99
30919;BME280;76545;51.606;5.884;2024-03-08T12:23:39;100978.16;;;8.16;64.63
30919;BME280;76545;51.606;5.884;2024-03-08T12:26:17;100976.78;;;8.36;60.86
30919;BME280;76545;51.606;5.884;2024-03-08T12:28:44;100973.28;;;8.22;60.03
30919;BME280;76545;51.606;5.884;2024-03-08T12:31:14;100969.78;;;8.21;58.39
30919;BME280;76545;51.606;5.884;2024-03-08T12:33:55;100960.03;;;8.48;61.33
30919;BME280;76545;51.606;5.884;2024-03-08T12:36:25;100962.66;;;8.48;60.41
30919;BME280;76545;51.606;5.884;2024-03-08T12:38:53;100951.38;;;8.35;58.45
30919;BME280;76545;51.606;5.884;2024-03-08T12:41:20;100952.50;;;8.39;59.69
30919;BME280;76545;51.606;5.884;2024-03-08T12:43:47;100949.78;;;8.37;62.66
30919;BME280;76545;51.606;5.884;2024-03-08T12:46:20;100945.94;;;8.45;59.31
30919;BME280;76545;51.606;5.884;2024-03-08T12:48:47;100935.13;;;8.41;62.06
30919;BME280;76545;51.606;5.884;2024-03-08T12:51:17;100942.88;;;8.53;60.32
30919;BME280;76545;51.606;5.884;2024-03-08T12:53:44;100926.56;;;8.72;59.49
30919;BME280;76545;51.606;5.884;2024-03-08T12:56:28;100923.69;;;8.67;58.27
30919;BME280;76545;51.606;5.884;2024-03-08T12:58:54;100922.59;;;8.50;57.54
30919;BME280;76545;51.606;5.884;2024-03-08T13:01:20;100917.91;;;8.73;58.52
30919;BME280;76545;51.606;5.884;2024-03-08T13:03:46;100907.59;;;8.76;58.70
30919;BME280;76545;51.606;5.884;2024-03-08T13:06:14;100908.81;;;8.68;59.92
30919;BME280;76545;51.606;5.884;2024-03-08T13:08:41;100902.34;;;8.76;58.11
30919;BME280;76545;51.606;5.884;2024-03-08T13:11:07;100900.00;;;8.81;57.49
30919;BME280;76545;51.606;5.884;2024-03-08T13:13:37;100898.41;;;8.98;58.39